Time;durP1;ratioP1;P1;durP2;ratioP2;P2;SDS_P1;SDS_P2;PMS_P1;PMS_P2;Temp;Humidity;BMP_temperature;BMP_pressure;BME280_temperature;BME280_humidity;BME280_pressure;Samples;Min_cycle;Max_cycle;Signal;HPM_P1;HPM_P2
2023/12/25 00:00:05;;;;;;;0.30;0.30;;;;;;;5.45;100.00;99967.53;5025417;28;20141;-74
2023/12/25 00:02:32;;;;;;;0.20;0.20;;;;;;;5.79;100.00;100041.72;5033067;28;20426;-74
2023/12/25 00:04:58;;;;;;;14.35;13.50;;;;;;;5.81;100.00;100044.38;5032604;28;20490;-74
2023/12/25 00:07:23;;;;;;;0.35;0.35;;;;;;;5.71;100.00;100020.81;5036118;28;20131;-75
2023/12/25 00:09:49;;;;;;;0.60;0.60;;;;;;;5.69;100.00;100006.03;5023971;28;20489;-73
2023/12/25 00:12:15;;;;;;;0.40;0.40;;;;;;;5.78;100.00;100037.38;5022963;28;20054;-75
2023/12/25 00:14:40;;;;;;;0.43;0.43;;;;;;;5.49;100.00;99969.31;5014650;28;20041;-74
2023/12/25 00:17:06;;;;;;;0.40;0.40;;;;;;;5.79;100.00;100023.50;5031156;28;20140;-74
2023/12/25 00:19:31;;;;;;;0.32;0.32;;;;;;;5.83;100.00;100042.63;5033976;28;20149;-74
2023/12/25 00:21:59;;;;;;;1.10;1.10;;;;;;;5.44;100.00;99961.44;5025652;28;20469;-73
2023/12/25 00:24:25;;;;;;;5.65;5.40;;;;;;;5.82;100.00;100023.53;5038911;28;20046;-74
2023/12/25 00:26:50;;;;;;;0.30;0.30;;;;;;;5.68;100.00;100009.47;5020981;28;20037;-73
2023/12/25 00:29:16;;;;;;;0.20;0.20;;;;;;;5.33;100.00;99975.16;5028528;28;20092;-74
2023/12/25 00:31:41;;;;;;;3.65;3.50;;;;;;;5.42;100.00;99972.69;5026499;28;20029;-73
2023/12/25 00:34:08;;;;;;;0.20;0.20;;;;;;;5.83;100.00;100035.72;5029461;28;20056;-74
2023/12/25 00:36:33;;;;;;;0.73;0.73;;;;;;;5.86;100.00;100020.13;5030278;28;20273;-73
2023/12/25 00:38:59;;;;;;;0.40;0.40;;;;;;;4.79;100.00;99863.47;5032461;28;20098;-74
2023/12/25 00:41:30;;;;;;;0.47;0.47;;;;;;;5.71;100.00;100005.19;5030074;28;20053;-73
2023/12/25 00:43:57;;;;;;;0.40;0.40;;;;;;;5.10;100.00;99910.69;5029233;28;20057;-73
2023/12/25 00:46:23;;;;;;;0.40;0.40;;;;;;;5.10;100.00;99913.28;5020254;28;20029;-73
2023/12/25 00:48:48;;;;;;;0.40;0.40;;;;;;;5.58;100.00;99981.59;5021499;28;20555;-73
2023/12/25 00:51:14;;;;;;;0.28;0.28;;;;;;;5.79;100.00;100022.66;5013938;28;20142;-73
2023/12/25 00:53:39;;;;;;;0.50;0.50;;;;;;;5.70;100.00;100018.19;5030706;28;20124;-73
2023/12/25 00:56:05;;;;;;;0.82;0.82;;;;;;;5.72;100.00;100022.56;5030001;28;20070;-75
2023/12/25 00:58:31;;;;;;;0.30;0.30;;;;;;;5.49;100.00;99971.91;5032481;28;20365;-75
2023/12/25 01:00:56;;;;;;;0.40;0.40;;;;;;;5.69;100.00;100012.09;5023805;28;20107;-74
2023/12/25 01:03:22;;;;;;;0.43;0.43;;;;;;;5.70;100.00;100024.25;5027991;28;20118;-75
2023/12/25 01:05:47;;;;;;;0.30;0.30;;;;;;;5.34;100.00;99954.38;5024615;28;20828;-73
2023/12/25 01:08:13;;;;;;;0.40;0.40;;;;;;;5.15;100.00;99941.97;5025771;28;20042;-73
2023/12/25 01:10:38;;;;;;;0.20;0.20;;;;;;;5.21;100.00;99929.06;5027828;28;20037;-74
2023/12/25 01:13:04;;;;;;;0.50;0.50;;;;;;;5.88;100.00;100027.97;5042794;28;20040;-74
2023/12/25 01:15:29;;;;;;;0.30;0.30;;;;;;;5.64;100.00;100007.69;5024634;28;20547;-74
2023/12/25 01:17:55;;;;;;;2.15;2.05;;;;;;;5.53;100.00;99978.94;5028541;28;20090;-75
2023/12/25 01:20:20;;;;;;;1.40;1.30;;;;;;;5.25;100.00;99923.91;5035647;28;20111;-74
2023/12/25 01:22:46;;;;;;;0.43;0.43;;;;;;;5.31;100.00;99920.50;5031551;28;20077;-74
2023/12/25 01:25:12;;;;;;;0.40;0.40;;;;;;;5.49;100.00;99964.97;5027205;28;20087;-74
2023/12/25 01:27:41;;;;;;;0.35;0.35;;;;;;;5.75;100.00;100026.91;5015159;28;20437;-73
2023/12/25 01:30:08;;;;;;;0.40;0.40;;;;;;;5.78;100.00;100003.53;5026776;28;20053;-73
2023/12/25 01:32:33;;;;;;;0.30;0.30;;;;;;;5.84;100.00;99982.78;5036956;28;20051;-74
2023/12/25 01:34:59;;;;;;;0.50;0.50;;;;;;;5.06;100.00;99852.59;5024105;28;20424;-74
2023/12/25 01:37:24;;;;;;;0.25;0.25;;;;;;;5.95;100.00;99985.56;5027680;28;20064;-74
2023/12/25 01:39:50;;;;;;;0.30;0.30;;;;;;;5.96;100.00;99997.72;5024986;28;20049;-73
2023/12/25 01:42:15;;;;;;;0.40;0.40;;;;;;;5.28;100.00;99903.13;5014831;28;20414;-73
2023/12/25 01:44:41;;;;;;;0.80;0.63;;;;;;;5.34;100.00;99880.66;5019087;28;20045;-73
2023/12/25 01:47:06;;;;;;;0.20;0.20;;;;;;;5.92;100.00;99967.25;5018167;28;20057;-73
2023/12/25 01:49:32;;;;;;;0.70;0.70;;;;;;;6.01;100.00;100000.38;5014420;28;20164;-73
2023/12/25 01:51:58;;;;;;;0.30;0.30;;;;;;;5.38;100.00;99898.91;5017328;28;20421;-73
2023/12/25 01:54:23;;;;;;;3.35;3.13;;;;;;;6.00;100.00;99986.47;5020192;28;20153;-74
2023/12/25 01:56:50;;;;;;;0.30;0.30;;;;;;;5.98;100.00;99974.31;5022178;28;20231;-74
2023/12/25 01:59:15;;;;;;;0.30;0.30;;;;;;;5.39;100.00;99897.22;5022379;28;20370;-74
2023/12/25 02:01:41;;;;;;;0.40;0.40;;;;;;;5.95;100.00;99982.97;5030068;28;20033;-73
2023/12/25 02:04:06;;;;;;;0.30;0.30;;;;;;;5.69;100.00;99933.16;5020650;28;20041;-74
2023/12/25 02:06:33;;;;;;;0.30;0.30;;;;;;;5.76;100.00;99915.84;5018359;28;20053;-74
2023/12/25 02:08:59;;;;;;;0.40;0.40;;;;;;;6.20;100.00;99970.19;5022003;28;20072;-74
2023/12/25 02:11:25;;;;;;;0.52;0.50;;;;;;;5.62;100.00;99861.94;5021792;28;20509;-75
2023/12/25 02:13:51;;;;;;;0.40;0.40;;;;;;;5.49;100.00;99837.50;5026203;28;20053;-73
2023/12/25 02:16:17;;;;;;;0.30;0.30;;;;;;;6.34;100.00;99966.88;5021662;28;20578;-73
2023/12/25 02:18:42;;;;;;;0.32;0.32;;;;;;;6.40;100.00;99960.84;5011756;28;20447;-74
2023/12/25 02:21:09;;;;;;;1.45;1.35;;;;;;;6.49;100.00;99967.88;5019465;28;20045;-74
2023/12/25 02:23:37;;;;;;;0.30;0.30;;;;;;;6.21;100.00;99910.31;5025821;28;20053;-74
2023/12/25 02:26:05;;;;;;;0.30;0.30;;;;;;;6.42;100.00;99935.69;5033550;28;20333;-74
2023/12/25 02:28:30;;;;;;;0.40;0.40;;;;;;;6.58;100.00;99960.16;5009162;28;20120;-74
2023/12/25 02:30:58;;;;;;;0.47;0.47;;;;;;;6.15;100.00;99878.97;5020993;28;20037;-74
2023/12/25 02:33:23;;;;;;;0.30;0.30;;;;;;;6.72;100.00;99966.34;5022328;28;20065;-73
2023/12/25 02:35:49;;;;;;;0.30;0.30;;;;;;;6.55;100.00;99949.69;5024849;28;20056;-73
2023/12/25 02:38:14;;;;;;;0.28;0.28;;;;;;;6.61;100.00;99943.66;5026556;28;20062;-73
2023/12/25 02:40:40;;;;;;;0.40;0.40;;;;;;;6.24;100.00;99872.97;5029429;28;20076;-74
2023/12/25 02:43:08;;;;;;;0.40;0.40;;;;;;;6.28;100.00;99880.84;5027579;28;20037;-75
2023/12/25 02:45:33;;;;;;;0.68;0.68;;;;;;;6.77;100.00;99961.19;5023154;28;20049;-74
2023/12/25 02:47:59;;;;;;;2.25;2.05;;;;;;;6.30;100.00;99875.66;5024881;28;20049;-73
2023/12/25 02:50:24;;;;;;;0.22;0.22;;;;;;;6.21;100.00;99880.78;5024229;28;20037;-74
2023/12/25 02:52:50;;;;;;;0.20;0.20;;;;;;;6.22;100.00;99870.34;5023736;28;20366;-75
2023/12/25 02:55:15;;;;;;;0.40;0.40;;;;;;;6.05;100.00;99853.72;5023660;28;20041;-74
2023/12/25 02:57:41;;;;;;;0.85;0.85;;;;;;;6.24;100.00;99866.03;5020488;28;20041;-74
2023/12/25 03:00:07;;;;;;;0.30;0.30;;;;;;;6.79;100.00;99953.34;5026423;28;20060;-74
2023/12/25 03:02:33;;;;;;;0.30;0.30;;;;;;;6.27;100.00;99853.03;5022104;28;20574;-74
2023/12/25 03:04:58;;;;;;;3.38;3.15;;;;;;;6.71;100.00;99927.22;5025712;28;20053;-74
2023/12/25 03:07:24;;;;;;;0.30;0.30;;;;;;;6.75;100.00;99924.66;5024703;28;20037;-73
2023/12/25 03:09:49;;;;;;;6.30;5.70;;;;;;;6.54;100.00;99891.47;5024316;28;20046;-74
2023/12/25 03:12:15;;;;;;;0.32;0.32;;;;;;;6.35;100.00;99850.50;5023098;28;20143;-73
2023/12/25 03:14:41;;;;;;;1.95;1.33;;;;;;;6.81;100.00;99925.56;5030744;28;20050;-73
2023/12/25 03:17:06;;;;;;;0.40;0.40;;;;;;;6.80;100.00;99936.88;5027234;28;20193;-73
2023/12/25 03:19:32;;;;;;;0.52;0.45;;;;;;;6.86;100.00;99926.47;5026720;28;20033;-73
2023/12/25 03:21:57;;;;;;;0.20;0.20;;;;;;;6.40;100.00;99851.41;5041610;28;20040;-74
2023/12/25 03:24:23;;;;;;;0.30;0.30;;;;;;;6.39;100.00;99841.84;5034471;28;20549;-73
2023/12/25 03:26:49;;;;;;;2.05;1.88;;;;;;;6.39;100.00;99821.00;5027151;28;20053;-75
2023/12/25 03:29:15;;;;;;;3.22;3.05;;;;;;;6.32;100.00;99809.66;5027686;28;20033;-73
2023/12/25 03:31:40;;;;;;;0.30;0.30;;;;;;;6.66;100.00;99850.72;5026517;28;20444;-74
2023/12/25 03:34:06;;;;;;;0.30;0.30;;;;;;;6.85;100.00;99863.00;5034255;28;20033;-73
2023/12/25 03:36:32;;;;;;;0.30;0.30;;;;;;;6.91;100.00;99870.00;5020962;28;20049;-74
2023/12/25 03:38:57;;;;;;;0.50;0.50;;;;;;;6.59;100.00;99817.66;5037736;28;20243;-75
2023/12/25 03:41:23;;;;;;;0.45;0.45;;;;;;;6.49;100.00;99782.84;5033051;28;20455;-73
2023/12/25 03:43:48;;;;;;;0.73;0.73;;;;;;;7.25;100.00;99901.50;5004603;28;20069;-74
2023/12/25 03:46:14;;;;;;;0.40;0.40;;;;;;;6.76;100.00;99798.63;5030476;28;20113;-74
2023/12/25 03:48:39;;;;;;;0.30;0.30;;;;;;;6.67;100.00;99795.09;5035247;28;20523;-75
2023/12/25 03:51:05;;;;;;;0.20;0.20;;;;;;;7.10;100.00;99848.38;5037394;28;20527;-74
2023/12/25 03:53:31;;;;;;;2.20;2.10;;;;;;;6.79;100.00;99796.91;5011172;28;20113;-73
2023/12/25 03:56:04;;;;;;;0.35;0.35;;;;;;;7.19;100.00;99889.28;5028376;28;20147;-73
2023/12/25 03:58:29;;;;;;;0.40;0.40;;;;;;;7.13;100.00;99857.94;5023405;28;20036;-74
2023/12/25 04:00:54;;;;;;;0.30;0.30;;;;;;;6.86;100.00;99812.63;5027540;28;20041;-74
2023/12/25 04:03:20;;;;;;;2.35;2.15;;;;;;;7.42;100.00;99918.09;5039985;28;20056;-75
2023/12/25 04:05:46;;;;;;;0.45;0.45;;;;;;;7.44;100.00;99916.38;5037807;28;20629;-73
2023/12/25 04:08:11;;;;;;;0.28;0.28;;;;;;;7.19;100.00;99869.28;5016011;28;20058;-74
2023/12/25 04:10:37;;;;;;;0.40;0.40;;;;;;;7.37;100.00;99925.03;5027791;28;20029;-73
2023/12/25 04:13:03;;;;;;;6.78;1.25;;;;;;;6.86;100.00;99825.66;5024954;28;20033;-74
2023/12/25 04:15:28;;;;;;;0.30;0.30;;;;;;;7.39;100.00;99911.13;5027048;28;20045;-73
2023/12/25 04:17:54;;;;;;;0.38;0.38;;;;;;;7.13;100.00;99855.34;5023715;28;20049;-74
2023/12/25 04:20:19;;;;;;;0.20;0.20;;;;;;;6.85;100.00;99828.25;5028338;28;20136;-74
2023/12/25 04:22:44;;;;;;;0.30;0.30;;;;;;;7.29;100.00;99885.00;5035949;28;20057;-74
2023/12/25 04:25:10;;;;;;;0.30;0.30;;;;;;;7.42;100.00;99898.97;5035974;28;20060;-74
2023/12/25 04:27:35;;;;;;;0.40;0.40;;;;;;;6.98;100.00;99819.63;5016042;28;20355;-74
2023/12/25 04:30:02;;;;;;;1.00;0.95;;;;;;;7.10;100.00;99835.31;5014770;28;20049;-74
2023/12/25 04:32:27;;;;;;;0.68;0.68;;;;;;;7.24;100.00;99908.44;5028648;28;20052;-74
2023/12/25 04:34:53;;;;;;;1.10;1.10;;;;;;;7.21;100.00;99891.91;5024492;28;20104;-74
2023/12/25 04:37:20;;;;;;;0.20;0.20;;;;;;;6.86;100.00;99837.78;5025851;28;20028;-74
2023/12/25 04:39:45;;;;;;;0.22;0.22;;;;;;;6.96;100.00;99857.88;5032857;28;20042;-74
2023/12/25 04:42:11;;;;;;;0.30;0.30;;;;;;;7.00;100.00;99871.78;5024333;28;20046;-74
2023/12/25 04:44:36;;;;;;;0.30;0.30;;;;;;;6.98;100.00;99882.22;5021426;28;20160;-74
2023/12/25 04:47:02;;;;;;;0.30;0.30;;;;;;;6.78;100.00;99845.56;5025624;28;20453;-73
2023/12/25 04:49:27;;;;;;;0.30;0.30;;;;;;;6.69;100.00;99825.53;5025074;28;20033;-73
2023/12/25 04:51:53;;;;;;;0.68;0.68;;;;;;;6.50;100.00;99780.22;5018860;28;20428;-73
2023/12/25 04:54:18;;;;;;;0.30;0.30;;;;;;;6.90;100.00;99843.03;5022830;28;20215;-73
2023/12/25 04:56:44;;;;;;;0.30;0.30;;;;;;;7.40;100.00;99906.81;5023390;28;20122;-73
2023/12/25 04:59:10;;;;;;;1.75;1.65;;;;;;;6.91;100.00;99804.81;5025070;28;20521;-73
2023/12/25 05:01:36;;;;;;;0.93;0.93;;;;;;;7.39;100.00;99899.81;5022711;28;20037;-73
2023/12/25 05:04:01;;;;;;;0.50;0.50;;;;;;;7.11;100.00;99849.22;5027027;28;20033;-73
2023/12/25 05:06:27;;;;;;;0.28;0.28;;;;;;;7.32;100.00;99864.13;5019385;28;20657;-73
2023/12/25 05:08:53;;;;;;;14.30;13.75;;;;;;;7.41;100.00;99885.03;4997047;28;20050;-75
2023/12/25 05:11:19;;;;;;;0.25;0.25;;;;;;;7.10;100.00;99811.84;5018536;28;20680;-74
2023/12/25 05:13:45;;;;;;;1.10;1.10;;;;;;;7.60;100.00;99912.09;5024622;28;22184;-74
2023/12/25 05:16:10;;;;;;;0.30;0.30;;;;;;;7.69;100.00;99913.88;5028043;28;20045;-73
2023/12/25 05:18:36;;;;;;;0.63;0.63;;;;;;;7.70;100.00;99907.75;5025720;28;20052;-76
2023/12/25 05:21:01;;;;;;;2.13;2.05;;;;;;;7.73;100.00;99903.44;5027051;28;20056;-74
2023/12/25 05:23:27;;;;;;;0.75;0.75;;;;;;;7.60;100.00;99872.94;5021385;28;20070;-74
2023/12/25 05:25:52;;;;;;;0.30;0.30;;;;;;;7.54;100.00;99886.84;5023851;28;20064;-75
2023/12/25 05:28:18;;;;;;;1.23;0.68;;;;;;;7.37;100.00;99831.06;5017036;28;20045;-73
2023/12/25 05:30:43;;;;;;;1.25;0.93;;;;;;;7.22;100.00;99818.84;5023535;28;20057;-74
2023/12/25 05:33:09;;;;;;;0.30;0.30;;;;;;;7.88;100.00;99917.41;5018444;28;20061;-73
2023/12/25 05:35:34;;;;;;;0.55;0.55;;;;;;;7.76;100.00;99929.56;5016429;28;20058;-74
2023/12/25 05:38:00;;;;;;;0.88;0.88;;;;;;;7.13;100.00;99806.63;5018445;28;20207;-74
2023/12/25 05:40:25;;;;;;;0.40;0.40;;;;;;;7.78;100.00;99927.81;5024408;28;20583;-73
2023/12/25 05:42:51;;;;;;;0.63;0.63;;;;;;;7.68;100.00;99899.06;5025346;28;20499;-73
2023/12/25 05:45:19;;;;;;;0.40;0.40;;;;;;;7.41;100.00;99845.88;5024005;28;20053;-73
2023/12/25 05:47:44;;;;;;;0.30;0.30;;;;;;;7.95;100.00;99921.78;5020451;28;20045;-74
2023/12/25 05:50:10;;;;;;;0.30;0.30;;;;;;;7.29;100.00;99838.88;5021129;28;20060;-74
2023/12/25 05:52:35;;;;;;;1.85;1.75;;;;;;;7.31;100.00;99833.69;5023714;28;20060;-74
2023/12/25 05:55:01;;;;;;;0.40;0.40;;;;;;;7.96;100.00;99920.91;5018462;28;20037;-75
2023/12/25 05:57:28;;;;;;;6.50;6.22;;;;;;;7.86;100.00;99908.69;5019808;28;20046;-75
2023/12/25 05:59:54;;;;;;;0.38;0.38;;;;;;;7.85;100.00;99910.44;5024574;28;20121;-74
2023/12/25 06:02:19;;;;;;;0.93;0.88;;;;;;;7.67;100.00;99900.81;5002472;28;21042;-74
2023/12/25 06:04:45;;;;;;;31.17;26.27;;;;;;;7.82;100.00;99910.44;5031434;28;20073;-75
2023/12/25 06:07:11;;;;;;;8.88;3.15;;;;;;;7.69;100.00;99906.91;5021166;28;20025;-75
2023/12/25 06:09:37;;;;;;;0.40;0.30;;;;;;;7.80;100.00;99915.66;5016445;28;20054;-75
2023/12/25 06:12:03;;;;;;;0.20;0.20;;;;;;;7.51;100.00;99888.56;5016438;28;20175;-74
2023/12/25 06:14:29;;;;;;;0.68;0.65;;;;;;;7.83;100.00;99920.88;5016653;28;20050;-74
2023/12/25 06:16:54;;;;;;;0.28;0.28;;;;;;;7.39;100.00;99837.19;5016641;28;20061;-72
2023/12/25 06:19:20;;;;;;;0.30;0.30;;;;;;;7.29;100.00;99833.66;5021172;28;20454;-73
2023/12/25 06:21:45;;;;;;;0.20;0.20;;;;;;;7.69;100.00;99904.28;5015818;28;20068;-74
2023/12/25 06:24:11;;;;;;;0.30;0.30;;;;;;;7.29;100.00;99854.53;5017049;28;20053;-74
2023/12/25 06:26:36;;;;;;;2.30;2.20;;;;;;;7.25;100.00;99837.13;5023854;28;20667;-74
2023/12/25 06:29:02;;;;;;;1.88;1.77;;;;;;;7.40;100.00;99854.59;5018060;28;20505;-72
2023/12/25 06:31:28;;;;;;;0.40;0.40;;;;;;;7.16;100.00;99816.22;5014313;28;20037;-72
2023/12/25 06:33:53;;;;;;;0.30;0.30;;;;;;;7.74;100.00;99910.41;5015982;28;20044;-76
2023/12/25 06:36:19;;;;;;;9.05;5.95;;;;;;;6.52;100.00;99713.34;5018660;28;20486;-74
2023/12/25 06:38:44;;;;;;;6.57;1.52;;;;;;;7.25;100.00;99838.88;5031349;28;20053;-74
2023/12/25 06:41:13;;;;;;;1.23;0.75;;;;;;;7.67;100.00;99944.31;5001330;28;20569;-73
2023/12/25 06:43:39;;;;;;;0.20;0.20;;;;;;;7.60;100.00;99920.78;5018542;28;20029;-73
2023/12/25 06:46:05;;;;;;;0.30;0.30;;;;;;;7.57;100.00;99935.59;5018996;28;20322;-74
2023/12/25 06:48:30;;;;;;;2.28;2.17;;;;;;;7.23;100.00;99846.69;5018937;28;20144;-73
2023/12/25 06:50:57;;;;;;;0.63;0.63;;;;;;;7.61;100.00;99927.78;5020902;28;20145;-73
2023/12/25 06:53:22;;;;;;;0.43;0.43;;;;;;;7.63;100.00;99922.53;5023879;28;20068;-73
2023/12/25 06:55:48;;;;;;;0.50;0.50;;;;;;;7.41;100.00;99877.22;5028324;28;20045;-74
2023/12/25 06:58:14;;;;;;;0.40;0.40;;;;;;;7.87;100.00;99947.03;5022540;28;20037;-74
2023/12/25 07:00:39;;;;;;;0.30;0.30;;;;;;;7.57;100.00;99880.75;5020938;28;20053;-74
2023/12/25 07:03:04;;;;;;;0.20;0.20;;;;;;;7.89;100.00;99935.72;5021666;28;20076;-73
2023/12/25 07:05:30;;;;;;;0.30;0.30;;;;;;;7.90;100.00;99920.91;5000929;28;20490;-75
2023/12/25 07:07:56;;;;;;;0.30;0.30;;;;;;;8.07;100.00;99949.69;5022314;28;20042;-74
2023/12/25 07:10:21;;;;;;;0.20;0.20;;;;;;;7.80;100.00;99891.28;5018122;28;20069;-74
2023/12/25 07:12:47;;;;;;;0.30;0.30;;;;;;;7.65;100.00;99860.75;5014384;28;20068;-73
2023/12/25 07:15:12;;;;;;;0.40;0.40;;;;;;;8.23;100.00;99946.22;5018819;28;20044;-74
2023/12/25 07:17:38;;;;;;;1.60;1.50;;;;;;;8.16;100.00;99920.97;5021190;28;20053;-74
2023/12/25 07:20:04;;;;;;;1.17;1.17;;;;;;;7.08;100.00;99731.84;5022077;28;20041;-73
2023/12/25 07:22:31;;;;;;;0.50;0.50;;;;;;;8.31;100.00;99935.78;5027324;28;20037;-72
2023/12/25 07:24:57;;;;;;;1.58;1.48;;;;;;;8.28;100.00;99918.34;5029354;28;20041;-75
2023/12/25 07:27:23;;;;;;;0.30;0.30;;;;;;;8.02;100.00;99868.69;5024060;28;20423;-75
2023/12/25 07:29:48;;;;;;;0.35;0.35;;;;;;;8.01;100.00;99861.72;5025320;28;20045;-75
2023/12/25 07:32:14;;;;;;;0.30;0.30;;;;;;;8.35;100.00;99924.47;5025737;28;20054;-74
2023/12/25 07:34:39;;;;;;;1.58;1.48;;;;;;;8.34;100.00;99905.31;5028489;28;20025;-73
2023/12/25 07:37:05;;;;;;;1.35;1.27;;;;;;;8.72;100.00;99948.94;5034993;28;20435;-74
2023/12/25 07:39:30;;;;;;;0.40;0.40;;;;;;;8.71;100.00;99939.34;5028011;28;20675;-73
2023/12/25 07:41:56;;;;;;;0.38;0.38;;;;;;;8.78;100.00;99946.31;5029905;28;20041;-74
2023/12/25 07:44:22;;;;;;;3.03;2.40;;;;;;;8.57;100.00;99883.53;5020694;28;20592;-74
2023/12/25 07:46:48;;;;;;;0.32;0.32;;;;;;;8.74;100.00;99921.03;5022580;28;20053;-73
2023/12/25 07:49:13;;;;;;;0.40;0.40;;;;;;;8.44;100.00;99854.78;5029770;28;20116;-74
2023/12/25 07:51:39;;;;;;;1.30;1.20;;;;;;;9.16;100.00;99948.03;5027270;28;20056;-74
2023/12/25 07:54:04;;;;;;;0.30;0.30;;;;;;;8.83;100.00;99897.47;5026785;28;20096;-73
2023/12/25 07:56:30;;;;;;;0.35;0.35;;;;;;;9.25;100.00;99945.38;5027141;28;20451;-74
2023/12/25 07:58:56;;;;;;;0.30;0.30;;;;;;;9.29;100.00;99967.19;5024776;28;20482;-75
2023/12/25 08:01:22;;;;;;;0.30;0.30;;;;;;;9.36;100.00;99941.88;5027280;28;20029;-75
2023/12/25 08:03:51;;;;;;;1.63;1.25;;;;;;;9.47;100.00;99956.66;5031792;28;20049;-75
2023/12/25 08:06:17;;;;;;;1.55;1.17;;;;;;;9.42;100.00;99932.25;5018624;28;20099;-73
2023/12/25 08:08:44;;;;;;;0.75;0.75;;;;;;;9.11;100.00;99884.34;5039282;28;20037;-74
2023/12/25 08:11:14;;;;;;;0.40;0.40;;;;;;;9.66;100.00;99952.22;5028380;28;20041;-74
2023/12/25 08:13:39;;;;;;;0.30;0.30;;;;;;;9.28;100.00;99871.22;5026787;28;20033;-73
2023/12/25 08:16:05;;;;;;;1.75;1.20;;;;;;;9.66;100.00;99944.38;5025764;28;20091;-77
2023/12/25 08:18:31;;;;;;;0.30;0.30;;;;;;;9.20;100.00;99870.34;5025027;28;20049;-72
2023/12/25 08:20:57;;;;;;;8.38;7.65;;;;;;;9.27;100.00;99872.06;5018095;28;20071;-73
2023/12/25 08:23:22;;;;;;;0.20;0.20;;;;;;;9.75;100.00;99946.09;5023343;28;20096;-73
2023/12/25 08:25:48;;;;;;;0.77;0.52;;;;;;;9.96;100.00;99952.13;5022741;28;20140;-74
2023/12/25 08:28:13;;;;;;;4.82;2.13;;;;;;;9.48;100.00;99877.25;5024291;28;20053;-72
2023/12/25 08:30:39;;;;;;;3.35;3.03;;;;;;;10.00;100.00;99949.47;5024475;28;20069;-72
2023/12/25 08:33:05;;;;;;;0.32;0.32;;;;;;;10.06;100.00;99957.28;5019654;28;20049;-72
2023/12/25 08:35:30;;;;;;;2.42;1.05;;;;;;;9.77;100.00;99910.28;5024431;28;20053;-72
2023/12/25 08:37:56;;;;;;;1.70;1.60;;;;;;;9.65;100.00;99908.59;5021454;28;20045;-72
2023/12/25 08:40:21;;;;;;;0.55;0.55;;;;;;;9.66;100.00;99888.50;5025410;28;20063;-71
2023/12/25 08:42:47;;;;;;;1.27;1.17;;;;;;;10.28;100.00;99972.94;5025515;28;20041;-72
2023/12/25 08:45:12;;;;;;;0.30;0.30;;;;;;;10.29;100.00;99979.94;5026863;28;20549;-72
2023/12/25 08:47:38;;;;;;;0.20;0.20;;;;;;;10.29;100.00;99974.69;5023937;28;20045;-73
2023/12/25 08:50:04;;;;;;;39.63;24.77;;;;;;;10.43;100.00;99982.47;5026633;28;20156;-72
2023/12/25 08:52:29;;;;;;;0.20;0.20;;;;;;;10.28;100.00;99962.44;5025008;28;20029;-73
2023/12/25 08:54:56;;;;;;;1.25;1.15;;;;;;;10.02;100.00;99897.94;5013949;28;20810;-74
2023/12/25 08:57:22;;;;;;;0.50;0.50;;;;;;;9.93;100.00;99890.97;5018748;28;20129;-74
2023/12/25 08:59:49;;;;;;;1.05;1.05;;;;;;;10.11;100.00;99883.88;5025614;28;20134;-73
2023/12/25 09:02:19;;;;;;;0.28;0.28;;;;;;;10.48;100.00;99955.31;5021390;28;20481;-72
2023/12/25 09:04:48;;;;;;;1.65;1.55;;;;;;;10.63;100.00;99970.09;5020652;28;20058;-73
2023/12/25 09:07:15;;;;;;;1.85;1.52;;;;;;;10.77;100.00;99989.22;5023957;28;20041;-71
2023/12/25 09:09:40;;;;;;;1.13;0.88;;;;;;;10.84;100.00;99965.53;5020354;28;20468;-71
2023/12/25 09:12:06;;;;;;;0.43;0.43;;;;;;;10.61;100.00;99974.50;5025813;28;20131;-71
2023/12/25 09:14:31;;;;;;;3.95;2.67;;;;;;;10.85;100.00;99962.91;5017817;28;20052;-72
2023/12/25 09:16:57;;;;;;;0.30;0.30;;;;;;;10.43;100.00;99878.44;5025403;28;20060;-72
2023/12/25 09:19:22;;;;;;;2.83;2.30;;;;;;;10.75;100.00;99895.66;5026003;28;20060;-73
2023/12/25 09:21:48;;;;;;;0.30;0.30;;;;;;;10.81;100.00;99884.22;5019932;28;20056;-73
2023/12/25 09:24:14;;;;;;;1.92;1.83;;;;;;;11.29;100.00;99948.50;5016696;28;20061;-72
2023/12/25 09:26:39;;;;;;;0.30;0.30;;;;;;;11.41;100.00;99948.38;5020886;28;20045;-73
2023/12/25 09:29:05;;;;;;;0.20;0.20;;;;;;;11.28;100.00;99938.88;5025828;28;20084;-72
2023/12/25 09:31:30;;;;;;;0.22;0.22;;;;;;;11.06;100.00;99869.09;5020253;28;20033;-73
2023/12/25 09:33:57;;;;;;;1.42;1.33;;;;;;;11.46;100.00;99921.19;5016222;28;20073;-73
2023/12/25 09:36:24;;;;;;;4.22;2.70;;;;;;;11.09;100.00;99862.03;5017841;28;20135;-73
2023/12/25 09:38:50;;;;;;;0.47;0.47;;;;;;;11.25;100.00;99839.13;5021579;28;20144;-73
2023/12/25 09:41:16;;;;;;;0.60;0.60;;;;;;;11.38;100.00;99852.97;5017555;28;20520;-72
2023/12/25 09:43:46;;;;;;;2.35;2.13;;;;;;;11.95;100.00;99923.22;5025546;28;20033;-72
2023/12/25 09:46:12;;;;;;;1.60;1.33;;;;;;;11.57;100.00;99854.47;5004851;28;20046;-72
2023/12/25 09:48:38;;;;;;;2.25;1.77;;;;;;;12.19;100.00;99928.13;5020353;28;20052;-73
2023/12/25 09:51:06;;;;;;;2.40;1.40;;;;;;;12.22;100.00;99907.06;5015251;28;20050;-73
2023/12/25 09:53:32;;;;;;;1.33;1.23;;;;;;;11.82;100.00;99835.72;5024929;28;20106;-74
2023/12/25 09:55:59;;;;;;;1.13;1.02;;;;;;;11.82;100.00;99806.81;5019635;28;20148;-76
2023/12/25 09:58:27;;;;;;;1.58;0.98;;;;;;;12.27;100.00;99941.19;5003346;28;20041;-75
2023/12/25 10:00:54;;;;;;;9.98;2.40;;;;;;;12.39;100.00;99916.47;5022826;28;20029;-79
2023/12/25 10:03:20;;;;;;;3.03;1.95;;;;;;;12.33;100.00;99888.47;5019580;28;20050;-76
2023/12/25 10:05:46;;;;;;;3.95;2.50;;;;;;;12.29;100.00;99884.16;5021220;28;20136;-74
2023/12/25 10:08:11;;;;;;;4.30;1.50;;;;;;;12.55;100.00;99912.69;5019718;28;20049;-75
2023/12/25 10:10:37;;;;;;;3.72;2.20;;;;;;;12.71;100.00;99909.78;5021922;28;20442;-74
2023/12/25 10:13:03;;;;;;;2.75;2.20;;;;;;;12.37;100.00;99844.56;5020009;28;20033;-75
2023/12/25 10:15:28;;;;;;;4.55;1.90;;;;;;;12.70;100.00;99923.88;5018286;28;20108;-75
2023/12/25 10:18:02;;;;;;;2.83;2.63;;;;;;;12.36;100.00;99848.09;5012858;28;20065;-74
2023/12/25 10:20:27;;;;;;;2.35;1.77;;;;;;;12.29;100.00;99817.50;5019409;28;20524;-79
2023/12/25 10:22:53;;;;;;;0.65;0.65;;;;;;;12.77;100.00;99899.16;5019389;28;20053;-75
2023/12/25 10:25:25;;;;;;;2.95;1.77;;;;;;;12.55;100.00;99843.38;5002193;28;20041;-74
2023/12/25 10:27:52;;;;;;;3.38;1.17;;;;;;;13.03;100.00;99888.16;5019263;28;20045;-74
2023/12/25 10:30:19;;;;;;;3.35;2.40;;;;;;;12.38;100.00;99777.91;5019209;28;20042;-74
2023/12/25 10:32:47;;;;;;;5.03;1.60;;;;;;;12.99;100.00;99878.56;5018563;28;20053;-77
2023/12/25 10:35:14;;;;;;;0.93;0.85;;;;;;;12.34;100.00;99798.16;5016436;28;20688;-73
2023/12/25 10:37:41;;;;;;;2.33;2.05;;;;;;;13.28;100.00;99889.47;5024226;28;20037;-75
2023/12/25 10:40:19;;;;;;;0.82;0.60;;;;;;;13.48;100.00;99901.38;5011701;28;20041;-75
2023/12/25 10:42:49;;;;;;;5.72;2.28;;;;;;;12.98;100.00;99819.78;5024821;28;20046;-74
2023/12/25 10:45:21;;;;;;;1.23;1.08;;;;;;;13.72;100.00;99887.69;5017823;28;20042;-73
2023/12/25 10:47:50;;;;;;;0.43;0.43;;;;;;;14.04;100.00;99885.25;5012244;28;20045;-73
2023/12/25 10:50:20;;;;;;;1.90;1.75;;;;;;;13.48;100.00;99812.63;5024403;28;20053;-74
2023/12/25 10:52:48;;;;;;;2.25;2.05;;;;;;;14.14;100.00;99903.47;5022409;28;20075;-74
2023/12/25 10:55:31;;;;;;;1.55;1.45;;;;;;;13.47;100.00;99766.09;5020591;28;20462;-74
2023/12/25 10:57:58;;;;;;;1.67;1.58;;;;;;;14.02;100.00;99836.91;5019500;28;20149;-74
2023/12/25 11:00:25;;;;;;;2.55;1.77;;;;;;;14.73;100.00;99866.00;5019905;28;20165;-74
2023/12/25 11:02:57;;;;;;;1.50;1.40;;;;;;;14.57;100.00;99856.72;5013923;28;20391;-74
2023/12/25 11:05:24;;;;;;;4.00;3.17;;;;;;;14.61;100.00;99812.63;5022777;28;20179;-74
2023/12/25 11:07:52;;;;;;;1.48;0.85;;;;;;;15.09;100.00;99865.91;5026927;28;20568;-74
2023/12/25 11:10:18;;;;;;;0.35;0.30;;;;;;;15.11;100.00;99871.16;5027034;28;20195;-74
2023/12/25 11:12:44;;;;;;;3.05;2.63;;;;;;;15.10;100.00;99848.28;5023221;28;20046;-74
2023/12/25 11:15:11;;;;;;;0.50;0.50;;;;;;;15.14;100.00;99849.94;5008802;28;20049;-74
2023/12/25 11:17:38;;;;;;;1.95;1.55;;;;;;;15.08;100.00;99858.06;5023306;28;20046;-73
2023/12/25 11:20:08;;;;;;;3.80;2.13;;;;;;;14.48;100.00;99778.59;5023371;28;20048;-73
2023/12/25 11:22:36;;;;;;;1.65;1.30;;;;;;;14.66;100.00;99790.50;5027812;28;20025;-73
2023/12/25 11:25:03;;;;;;;2.45;0.80;;;;;;;14.44;100.00;99782.22;5027901;28;20690;-73